sensor_id;sensor_type;location;lat;lon;timestamp;P1;durP1;ratioP1;P2;durP2;ratioP2
20095;SDS011;10207;50.942;6.900;2023-04-01T00:00:18;1.70;;;0.57;;
20095;SDS011;10207;50.942;6.900;2023-04-01T00:02:44;2.20;;;0.22;;
20095;SDS011;10207;50.942;6.900;2023-04-01T00:05:10;1.83;;;0.28;;
20095;SDS011;10207;50.942;6.900;2023-04-01T00:07:37;0.17;;;0.10;;
20095;SDS011;10207;50.942;6.900;2023-04-01T00:10:04;2.58;;;0.40;;
20095;SDS011;10207;50.942;6.900;2023-04-01T00:12:30;0.77;;;0.13;;
20095;SDS011;10207;50.942;6.900;2023-04-01T00:14:56;0.45;;;0.13;;
20095;SDS011;10207;50.942;6.900;2023-04-01T00:17:22;3.22;;;0.45;;
20095;SDS011;10207;50.942;6.900;2023-04-01T00:19:48;1.60;;;0.20;;
20095;SDS011;10207;50.942;6.900;2023-04-01T00:22:14;1.77;;;0.30;;
20095;SDS011;10207;50.942;6.900;2023-04-01T00:24:40;2.80;;;0.10;;
20095;SDS011;10207;50.942;6.900;2023-04-01T00:27:06;0.30;;;0.10;;
20095;SDS011;10207;50.942;6.900;2023-04-01T00:29:33;1.85;;;0.30;;
20095;SDS011;10207;50.942;6.900;2023-04-01T00:32:00;2.00;;;0.30;;
20095;SDS011;10207;50.942;6.900;2023-04-01T00:34:26;1.88;;;0.20;;
20095;SDS011;10207;50.942;6.900;2023-04-01T00:36:52;1.98;;;0.57;;
20095;SDS011;10207;50.942;6.900;2023-04-01T00:39:18;0.32;;;0.10;;
20095;SDS011;10207;50.942;6.900;2023-04-01T00:41:44;0.57;;;0.17;;
20095;SDS011;10207;50.942;6.900;2023-04-01T00:44:11;1.38;;;0.17;;
20095;SDS011;10207;50.942;6.900;2023-04-01T00:46:40;1.30;;;0.20;;
20095;SDS011;10207;50.942;6.900;2023-04-01T00:49:06;3.50;;;0.30;;
20095;SDS011;10207;50.942;6.900;2023-04-01T00:51:32;1.27;;;0.13;;
20095;SDS011;10207;50.942;6.900;2023-04-01T00:53:58;0.32;;;0.10;;
20095;SDS011;10207;50.942;6.900;2023-04-01T00:56:25;2.88;;;0.10;;
20095;SDS011;10207;50.942;6.900;2023-04-01T00:59:04;0.90;;;0.30;;
20095;SDS011;10207;50.942;6.900;2023-04-01T01:01:31;0.15;;;0.10;;
20095;SDS011;10207;50.942;6.900;2023-04-01T01:03:57;1.00;;;0.20;;
20095;SDS011;10207;50.942;6.900;2023-04-01T01:06:26;0.82;;;0.10;;
20095;SDS011;10207;50.942;6.900;2023-04-01T01:11:48;2.08;;;0.20;;
20095;SDS011;10207;50.942;6.900;2023-04-01T01:16:45;0.35;;;0.10;;
20095;SDS011;10207;50.942;6.900;2023-04-01T01:27:16;0.95;;;0.20;;
20095;SDS011;10207;50.942;6.900;2023-04-01T01:37:16;0.20;;;0.10;;
20095;SDS011;10207;50.942;6.900;2023-04-01T01:39:43;0.65;;;0.20;;
20095;SDS011;10207;50.942;6.900;2023-04-01T01:42:16;0.10;;;0.10;;
20095;SDS011;10207;50.942;6.900;2023-04-01T01:44:43;1.42;;;0.00;;
20095;SDS011;10207;50.942;6.900;2023-04-01T01:47:10;0.75;;;0.10;;
20095;SDS011;10207;50.942;6.900;2023-04-01T01:49:36;0.55;;;0.20;;
20095;SDS011;10207;50.942;6.900;2023-04-01T01:52:02;2.17;;;0.13;;
20095;SDS011;10207;50.942;6.900;2023-04-01T01:54:29;2.15;;;0.20;;
20095;SDS011;10207;50.942;6.900;2023-04-01T01:57:06;0.20;;;0.10;;
20095;SDS011;10207;50.942;6.900;2023-04-01T01:59:33;1.17;;;0.20;;
20095;SDS011;10207;50.942;6.900;2023-04-01T02:02:00;0.28;;;0.10;;
20095;SDS011;10207;50.942;6.900;2023-04-01T02:04:26;0.45;;;0.10;;
20095;SDS011;10207;50.942;6.900;2023-04-01T02:06:57;0.95;;;0.10;;
20095;SDS011;10207;50.942;6.900;2023-04-01T02:09:26;0.20;;;0.10;;
20095;SDS011;10207;50.942;6.900;2023-04-01T02:11:53;1.83;;;0.10;;
20095;SDS011;10207;50.942;6.900;2023-04-01T02:16:57;3.58;;;0.60;;
20095;SDS011;10207;50.942;6.900;2023-04-01T02:19:26;0.60;;;0.10;;
20095;SDS011;10207;50.942;6.900;2023-04-01T02:21:55;0.43;;;0.10;;
20095;SDS011;10207;50.942;6.900;2023-04-01T02:24:22;0.50;;;0.20;;
20095;SDS011;10207;50.942;6.900;2023-04-01T02:26:50;1.23;;;0.30;;
20095;SDS011;10207;50.942;6.900;2023-04-01T02:29:20;1.45;;;0.13;;
20095;SDS011;10207;50.942;6.900;2023-04-01T02:31:47;0.10;;;0.03;;
20095;SDS011;10207;50.942;6.900;2023-04-01T02:34:14;0.30;;;0.10;;
20095;SDS011;10207;50.942;6.900;2023-04-01T02:36:40;0.28;;;0.15;;
20095;SDS011;10207;50.942;6.900;2023-04-01T02:39:07;0.47;;;0.10;;
20095;SDS011;10207;50.942;6.900;2023-04-01T02:41:40;1.98;;;0.10;;
20095;SDS011;10207;50.942;6.900;2023-04-01T02:44:07;0.40;;;0.03;;
20095;SDS011;10207;50.942;6.900;2023-04-01T02:46:33;0.35;;;0.08;;
20095;SDS011;10207;50.942;6.900;2023-04-01T02:48:59;0.30;;;0.17;;
20095;SDS011;10207;50.942;6.900;2023-04-01T02:51:25;0.10;;;0.10;;
20095;SDS011;10207;50.942;6.900;2023-04-01T02:53:51;0.08;;;0.08;;
20095;SDS011;10207;50.942;6.900;2023-04-01T02:56:18;0.22;;;0.10;;
20095;SDS011;10207;50.942;6.900;2023-04-01T02:58:45;0.10;;;0.00;;
20095;SDS011;10207;50.942;6.900;2023-04-01T03:01:11;1.30;;;0.25;;
20095;SDS011;10207;50.942;6.900;2023-04-01T03:03:37;2.40;;;0.30;;
20095;SDS011;10207;50.942;6.900;2023-04-01T03:06:07;1.55;;;0.20;;
20095;SDS011;10207;50.942;6.900;2023-04-01T03:08:33;0.88;;;0.10;;
20095;SDS011;10207;50.942;6.900;2023-04-01T03:10:59;0.60;;;0.10;;
20095;SDS011;10207;50.942;6.900;2023-04-01T03:13:25;2.08;;;0.10;;
20095;SDS011;10207;50.942;6.900;2023-04-01T03:15:51;0.10;;;0.10;;
20095;SDS011;10207;50.942;6.900;2023-04-01T03:18:18;0.15;;;0.08;;
20095;SDS011;10207;50.942;6.900;2023-04-01T03:20:44;1.35;;;0.08;;
20095;SDS011;10207;50.942;6.900;2023-04-01T03:23:10;2.17;;;0.45;;
20095;SDS011;10207;50.942;6.900;2023-04-01T03:25:36;1.08;;;0.47;;
20095;SDS011;10207;50.942;6.900;2023-04-01T03:28:02;0.20;;;0.05;;
20095;SDS011;10207;50.942;6.900;2023-04-01T03:30:28;0.17;;;0.15;;
20095;SDS011;10207;50.942;6.900;2023-04-01T03:32:57;0.25;;;0.10;;
20095;SDS011;10207;50.942;6.900;2023-04-01T03:35:23;1.65;;;0.10;;
20095;SDS011;10207;50.942;6.900;2023-04-01T03:37:52;0.10;;;0.10;;
20095;SDS011;10207;50.942;6.900;2023-04-01T03:40:18;0.10;;;0.10;;
20095;SDS011;10207;50.942;6.900;2023-04-01T03:42:44;0.00;;;0.00;;
20095;SDS011;10207;50.942;6.900;2023-04-01T03:45:11;0.63;;;0.35;;
20095;SDS011;10207;50.942;6.900;2023-04-01T03:47:40;0.28;;;0.10;;
20095;SDS011;10207;50.942;6.900;2023-04-01T03:50:06;0.10;;;0.10;;
20095;SDS011;10207;50.942;6.900;2023-04-01T03:52:33;0.45;;;0.10;;
20095;SDS011;10207;50.942;6.900;2023-04-01T03:55:00;1.42;;;0.30;;
20095;SDS011;10207;50.942;6.900;2023-04-01T03:57:26;0.70;;;0.10;;
20095;SDS011;10207;50.942;6.900;2023-04-01T03:59:55;0.98;;;0.20;;
20095;SDS011;10207;50.942;6.900;2023-04-01T04:02:21;1.20;;;0.20;;
20095;SDS011;10207;50.942;6.900;2023-04-01T04:04:47;0.00;;;0.00;;
20095;SDS011;10207;50.942;6.900;2023-04-01T04:07:13;0.73;;;0.10;;
20095;SDS011;10207;50.942;6.900;2023-04-01T04:09:58;0.10;;;0.03;;
20095;SDS011;10207;50.942;6.900;2023-04-01T04:12:24;0.77;;;0.00;;
20095;SDS011;10207;50.942;6.900;2023-04-01T04:14:50;0.85;;;0.20;;
20095;SDS011;10207;50.942;6.900;2023-04-01T04:17:16;0.08;;;0.00;;
20095;SDS011;10207;50.942;6.900;2023-04-01T04:19:43;1.45;;;0.00;;
20095;SDS011;10207;50.942;6.900;2023-04-01T04:22:09;0.65;;;0.00;;
20095;SDS011;10207;50.942;6.900;2023-04-01T04:24:35;0.00;;;0.00;;
20095;SDS011;10207;50.942;6.900;2023-04-01T04:27:07;0.55;;;0.00;;
20095;SDS011;10207;50.942;6.900;2023-04-01T04:29:35;0.22;;;0.10;;
20095;SDS011;10207;50.942;6.900;2023-04-01T04:32:01;0.28;;;0.00;;
20095;SDS011;10207;50.942;6.900;2023-04-01T04:34:27;0.65;;;0.10;;
20095;SDS011;10207;50.942;6.900;2023-04-01T04:36:53;0.15;;;0.05;;
20095;SDS011;10207;50.942;6.900;2023-04-01T04:39:22;0.40;;;0.10;;
20095;SDS011;10207;50.942;6.900;2023-04-01T04:41:49;1.27;;;0.10;;
20095;SDS011;10207;50.942;6.900;2023-04-01T04:44:14;0.47;;;0.10;;
20095;SDS011;10207;50.942;6.900;2023-04-01T04:46:41;0.28;;;0.00;;
20095;SDS011;10207;50.942;6.900;2023-04-01T04:49:15;0.35;;;0.10;;
20095;SDS011;10207;50.942;6.900;2023-04-01T04:51:41;0.10;;;0.10;;
20095;SDS011;10207;50.942;6.900;2023-04-01T04:54:07;0.75;;;0.10;;
20095;SDS011;10207;50.942;6.900;2023-04-01T04:56:55;0.30;;;0.10;;
20095;SDS011;10207;50.942;6.900;2023-04-01T04:59:22;0.65;;;0.20;;
20095;SDS011;10207;50.942;6.900;2023-04-01T05:02:05;0.28;;;0.20;;
20095;SDS011;10207;50.942;6.900;2023-04-01T05:04:35;1.20;;;0.30;;
20095;SDS011;10207;50.942;6.900;2023-04-01T05:07:02;1.45;;;0.30;;
20095;SDS011;10207;50.942;6.900;2023-04-01T05:09:28;1.70;;;0.32;;
20095;SDS011;10207;50.942;6.900;2023-04-01T05:11:54;1.55;;;0.20;;
20095;SDS011;10207;50.942;6.900;2023-04-01T05:14:22;2.20;;;0.30;;
20095;SDS011;10207;50.942;6.900;2023-04-01T05:16:56;1.65;;;0.22;;
20095;SDS011;10207;50.942;6.900;2023-04-01T05:19:22;1.05;;;0.73;;
20095;SDS011;10207;50.942;6.900;2023-04-01T05:21:48;0.95;;;0.38;;
20095;SDS011;10207;50.942;6.900;2023-04-01T05:24:15;0.73;;;0.40;;
20095;SDS011;10207;50.942;6.900;2023-04-01T05:26:41;1.38;;;0.30;;
20095;SDS011;10207;50.942;6.900;2023-04-01T05:29:07;1.25;;;0.30;;
20095;SDS011;10207;50.942;6.900;2023-04-01T05:31:33;1.10;;;0.30;;
20095;SDS011;10207;50.942;6.900;2023-04-01T05:34:00;1.10;;;0.45;;
20095;SDS011;10207;50.942;6.900;2023-04-01T05:36:27;0.80;;;0.30;;
20095;SDS011;10207;50.942;6.900;2023-04-01T05:38:54;1.05;;;0.22;;
20095;SDS011;10207;50.942;6.900;2023-04-01T05:41:22;0.52;;;0.28;;
20095;SDS011;10207;50.942;6.900;2023-04-01T05:43:47;0.77;;;0.30;;
20095;SDS011;10207;50.942;6.900;2023-04-01T05:46:43;3.60;;;0.68;;
20095;SDS011;10207;50.942;6.900;2023-04-01T05:49:24;1.33;;;0.50;;
20095;SDS011;10207;50.942;6.900;2023-04-01T05:51:50;0.85;;;0.43;;
20095;SDS011;10207;50.942;6.900;2023-04-01T05:54:18;2.15;;;0.50;;
20095;SDS011;10207;50.942;6.900;2023-04-01T05:56:44;1.30;;;0.45;;
20095;SDS011;10207;50.942;6.900;2023-04-01T05:59:11;1.50;;;0.60;;
20095;SDS011;10207;50.942;6.900;2023-04-01T06:01:37;1.05;;;0.50;;
20095;SDS011;10207;50.942;6.900;2023-04-01T06:04:03;2.53;;;0.40;;
20095;SDS011;10207;50.942;6.900;2023-04-01T06:06:30;1.85;;;0.88;;
20095;SDS011;10207;50.942;6.900;2023-04-01T06:09:12;1.30;;;0.68;;
20095;SDS011;10207;50.942;6.900;2023-04-01T06:46:03;1.95;;;1.02;;
20095;SDS011;10207;50.942;6.900;2023-04-01T06:49:27;1.48;;;1.00;;
20095;SDS011;10207;50.942;6.900;2023-04-01T06:54:40;3.97;;;1.00;;
20095;SDS011;10207;50.942;6.900;2023-04-01T07:00:04;1.88;;;1.20;;
20095;SDS011;10207;50.942;6.900;2023-04-01T07:05:02;4.15;;;1.65;;
20095;SDS011;10207;50.942;6.900;2023-04-01T07:07:46;2.97;;;1.33;;
20095;SDS011;10207;50.942;6.900;2023-04-01T07:10:16;2.30;;;1.30;;
20095;SDS011;10207;50.942;6.900;2023-04-01T07:13:03;1.83;;;1.17;;
20095;SDS011;10207;50.942;6.900;2023-04-01T07:15:49;2.83;;;1.20;;
20095;SDS011;10207;50.942;6.900;2023-04-01T07:18:25;2.50;;;1.45;;
20095;SDS011;10207;50.942;6.900;2023-04-01T07:20:54;4.28;;;1.85;;
20095;SDS011;10207;50.942;6.900;2023-04-01T07:23:32;2.75;;;1.48;;
20095;SDS011;10207;50.942;6.900;2023-04-01T07:26:25;3.80;;;1.38;;
20095;SDS011;10207;50.942;6.900;2023-04-01T07:29:14;2.65;;;1.40;;
20095;SDS011;10207;50.942;6.900;2023-04-01T07:58:13;2.92;;;1.13;;
20095;SDS011;10207;50.942;6.900;2023-04-01T08:01:06;1.60;;;1.20;;
20095;SDS011;10207;50.942;6.900;2023-04-01T08:06:14;2.28;;;1.20;;
20095;SDS011;10207;50.942;6.900;2023-04-01T08:17:26;2.50;;;1.60;;
20095;SDS011;10207;50.942;6.900;2023-04-01T08:20:37;2.17;;;0.80;;
20095;SDS011;10207;50.942;6.900;2023-04-01T08:22:45;1.58;;;0.88;;
20095;SDS011;10207;50.942;6.900;2023-04-01T08:25:27;1.98;;;0.93;;
20095;SDS011;10207;50.942;6.900;2023-04-01T08:27:57;1.63;;;0.85;;
20095;SDS011;10207;50.942;6.900;2023-04-01T08:30:26;1.85;;;0.80;;
20095;SDS011;10207;50.942;6.900;2023-04-01T08:32:55;4.50;;;0.90;;
20095;SDS011;10207;50.942;6.900;2023-04-01T08:35:26;3.17;;;1.42;;
20095;SDS011;10207;50.942;6.900;2023-04-01T08:37:55;1.42;;;0.88;;
20095;SDS011;10207;50.942;6.900;2023-04-01T08:41:07;1.65;;;0.95;;
20095;SDS011;10207;50.942;6.900;2023-04-01T08:48:28;1.05;;;0.63;;
20095;SDS011;10207;50.942;6.900;2023-04-01T08:51:04;1.08;;;0.57;;
20095;SDS011;10207;50.942;6.900;2023-04-01T08:53:59;0.47;;;0.38;;
20095;SDS011;10207;50.942;6.900;2023-04-01T08:56:34;1.35;;;0.70;;
20095;SDS011;10207;50.942;6.900;2023-04-01T09:05:02;1.60;;;0.40;;
20095;SDS011;10207;50.942;6.900;2023-04-01T09:17:59;3.47;;;1.15;;
20095;SDS011;10207;50.942;6.900;2023-04-01T09:23:25;8.38;;;1.80;;
20095;SDS011;10207;50.942;6.900;2023-04-01T10:12:17;1.45;;;0.95;;
20095;SDS011;10207;50.942;6.900;2023-04-01T10:22:55;3.00;;;1.17;;
20095;SDS011;10207;50.942;6.900;2023-04-01T10:44:30;1.10;;;0.90;;
20095;SDS011;10207;50.942;6.900;2023-04-01T10:52:38;2.40;;;0.82;;
20095;SDS011;10207;50.942;6.900;2023-04-01T10:55:31;0.82;;;0.60;;
20095;SDS011;10207;50.942;6.900;2023-04-01T11:16:03;0.90;;;0.70;;
20095;SDS011;10207;50.942;6.900;2023-04-01T11:21:34;0.98;;;0.70;;
20095;SDS011;10207;50.942;6.900;2023-04-01T11:24:09;0.55;;;0.50;;
20095;SDS011;10207;50.942;6.900;2023-04-01T11:29:57;2.13;;;0.73;;
20095;SDS011;10207;50.942;6.900;2023-04-01T11:35:20;0.77;;;0.60;;
20095;SDS011;10207;50.942;6.900;2023-04-01T11:40:41;0.80;;;0.50;;
20095;SDS011;10207;50.942;6.900;2023-04-01T11:43:49;0.60;;;0.60;;
20095;SDS011;10207;50.942;6.900;2023-04-01T11:52:29;1.52;;;0.52;;
20095;SDS011;10207;50.942;6.900;2023-04-01T12:02:44;0.88;;;0.63;;
20095;SDS011;10207;50.942;6.900;2023-04-01T12:08:07;0.80;;;0.70;;
20095;SDS011;10207;50.942;6.900;2023-04-01T12:13:04;0.70;;;0.50;;
20095;SDS011;10207;50.942;6.900;2023-04-01T12:20:39;0.38;;;0.38;;
20095;SDS011;10207;50.942;6.900;2023-04-01T12:25:54;2.45;;;0.60;;
20095;SDS011;10207;50.942;6.900;2023-04-01T12:28:24;0.70;;;0.60;;
20095;SDS011;10207;50.942;6.900;2023-04-01T12:33:34;0.60;;;0.50;;
20095;SDS011;10207;50.942;6.900;2023-04-01T12:36:06;0.40;;;0.40;;
20095;SDS011;10207;50.942;6.900;2023-04-01T12:38:39;0.60;;;0.50;;
20095;SDS011;10207;50.942;6.900;2023-04-01T12:41:13;0.40;;;0.40;;
20095;SDS011;10207;50.942;6.900;2023-04-01T12:43:53;0.45;;;0.45;;
20095;SDS011;10207;50.942;6.900;2023-04-01T12:49:12;2.33;;;0.70;;
20095;SDS011;10207;50.942;6.900;2023-04-01T13:02:31;0.73;;;0.60;;
20095;SDS011;10207;50.942;6.900;2023-04-01T13:15:50;0.93;;;0.70;;
20095;SDS011;10207;50.942;6.900;2023-04-01T13:28:50;1.40;;;0.80;;
20095;SDS011;10207;50.942;6.900;2023-04-01T13:34:08;1.83;;;0.77;;
20095;SDS011;10207;50.942;6.900;2023-04-01T13:39:29;1.83;;;1.20;;
20095;SDS011;10207;50.942;6.900;2023-04-01T13:42:03;3.78;;;1.30;;
20095;SDS011;10207;50.942;6.900;2023-04-01T13:44:37;1.48;;;1.10;;
20095;SDS011;10207;50.942;6.900;2023-04-01T13:52:34;1.58;;;1.17;;
20095;SDS011;10207;50.942;6.900;2023-04-01T14:00:25;1.58;;;1.13;;
20095;SDS011;10207;50.942;6.900;2023-04-01T14:05:28;2.05;;;1.10;;
20095;SDS011;10207;50.942;6.900;2023-04-01T14:15:39;2.08;;;1.50;;
20095;SDS011;10207;50.942;6.900;2023-04-01T14:18:11;2.33;;;1.30;;
20095;SDS011;10207;50.942;6.900;2023-04-01T14:38:51;2.83;;;1.75;;
20095;SDS011;10207;50.942;6.900;2023-04-01T14:41:30;2.63;;;1.92;;
20095;SDS011;10207;50.942;6.900;2023-04-01T14:46:51;2.90;;;1.98;;
20095;SDS011;10207;50.942;6.900;2023-04-01T14:52:03;1.98;;;1.60;;
20095;SDS011;10207;50.942;6.900;2023-04-01T14:54:31;2.80;;;1.90;;
20095;SDS011;10207;50.942;6.900;2023-04-01T14:57:05;2.22;;;1.67;;
20095;SDS011;10207;50.942;6.900;2023-04-01T14:59:33;2.70;;;1.98;;
20095;SDS011;10207;50.942;6.900;2023-04-01T15:04:50;1.85;;;1.50;;
20095;SDS011;10207;50.942;6.900;2023-04-01T15:10:06;2.90;;;1.30;;
20095;SDS011;10207;50.942;6.900;2023-04-01T15:18:21;1.80;;;1.50;;
20095;SDS011;10207;50.942;6.900;2023-04-01T15:20:39;1.92;;;1.35;;
20095;SDS011;10207;50.942;6.900;2023-04-01T15:23:11;4.28;;;1.77;;
20095;SDS011;10207;50.942;6.900;2023-04-01T15:25:43;2.28;;;1.60;;
20095;SDS011;10207;50.942;6.900;2023-04-01T15:36:50;2.20;;;1.90;;
20095;SDS011;10207;50.942;6.900;2023-04-01T15:50:34;2.30;;;1.73;;
20095;SDS011;10207;50.942;6.900;2023-04-01T15:52:43;2.35;;;1.88;;
20095;SDS011;10207;50.942;6.900;2023-04-01T15:55:31;3.47;;;2.10;;
20095;SDS011;10207;50.942;6.900;2023-04-01T15:58:14;2.60;;;1.90;;
20095;SDS011;10207;50.942;6.900;2023-04-01T16:00:49;3.05;;;2.35;;
20095;SDS011;10207;50.942;6.900;2023-04-01T16:03:31;4.05;;;2.25;;
20095;SDS011;10207;50.942;6.900;2023-04-01T16:13:51;3.17;;;1.95;;
20095;SDS011;10207;50.942;6.900;2023-04-01T16:16:23;2.95;;;2.30;;
20095;SDS011;10207;50.942;6.900;2023-04-01T16:21:41;3.20;;;2.00;;
20095;SDS011;10207;50.942;6.900;2023-04-01T16:24:30;2.88;;;2.10;;
20095;SDS011;10207;50.942;6.900;2023-04-01T16:27:00;3.03;;;1.80;;
20095;SDS011;10207;50.942;6.900;2023-04-01T16:29:38;2.85;;;2.10;;
20095;SDS011;10207;50.942;6.900;2023-04-01T16:37:20;3.03;;;2.30;;
20095;SDS011;10207;50.942;6.900;2023-04-01T16:42:19;3.05;;;2.38;;
20095;SDS011;10207;50.942;6.900;2023-04-01T16:44:53;2.85;;;2.10;;
20095;SDS011;10207;50.942;6.900;2023-04-01T16:47:21;3.95;;;2.25;;
20095;SDS011;10207;50.942;6.900;2023-04-01T16:49:52;3.50;;;2.25;;
20095;SDS011;10207;50.942;6.900;2023-04-01T16:52:36;5.28;;;2.38;;
20095;SDS011;10207;50.942;6.900;2023-04-01T16:55:16;3.72;;;2.22;;
20095;SDS011;10207;50.942;6.900;2023-04-01T16:57:46;4.07;;;2.15;;
20095;SDS011;10207;50.942;6.900;2023-04-01T17:00:37;3.13;;;2.28;;
20095;SDS011;10207;50.942;6.900;2023-04-01T17:08:37;2.47;;;2.10;;
20095;SDS011;10207;50.942;6.900;2023-04-01T17:11:14;1.92;;;1.70;;
20095;SDS011;10207;50.942;6.900;2023-04-01T17:13:47;3.03;;;2.17;;
20095;SDS011;10207;50.942;6.900;2023-04-01T17:29:05;2.90;;;1.92;;
20095;SDS011;10207;50.942;6.900;2023-04-01T17:36:59;2.80;;;2.10;;
20095;SDS011;10207;50.942;6.900;2023-04-01T17:39:30;3.20;;;2.00;;
20095;SDS011;10207;50.942;6.900;2023-04-01T17:51:59;4.07;;;3.22;;
20095;SDS011;10207;50.942;6.900;2023-04-01T17:54:31;4.53;;;3.17;;
20095;SDS011;10207;50.942;6.900;2023-04-01T17:59:35;5.00;;;3.28;;
20095;SDS011;10207;50.942;6.900;2023-04-01T18:02:52;5.35;;;3.70;;
20095;SDS011;10207;50.942;6.900;2023-04-01T18:17:42;4.85;;;4.05;;
20095;SDS011;10207;50.942;6.900;2023-04-01T18:25:36;7.13;;;4.65;;
20095;SDS011;10207;50.942;6.900;2023-04-01T18:28:21;6.57;;;4.50;;
20095;SDS011;10207;50.942;6.900;2023-04-01T18:33:40;7.88;;;5.18;;
20095;SDS011;10207;50.942;6.900;2023-04-01T18:38:54;6.07;;;4.47;;
20095;SDS011;10207;50.942;6.900;2023-04-01T18:41:35;6.25;;;4.97;;
20095;SDS011;10207;50.942;6.900;2023-04-01T18:44:07;7.82;;;5.57;;
20095;SDS011;10207;50.942;6.900;2023-04-01T18:46:39;7.85;;;4.70;;
20095;SDS011;10207;50.942;6.900;2023-04-01T18:56:41;8.27;;;5.43;;
20095;SDS011;10207;50.942;6.900;2023-04-01T19:06:58;11.35;;;6.70;;
20095;SDS011;10207;50.942;6.900;2023-04-01T19:09:29;8.73;;;6.25;;
20095;SDS011;10207;50.942;6.900;2023-04-01T19:19:52;7.13;;;5.18;;
20095;SDS011;10207;50.942;6.900;2023-04-01T19:27:41;7.10;;;4.50;;
20095;SDS011;10207;50.942;6.900;2023-04-01T19:30:22;6.20;;;4.35;;
20095;SDS011;10207;50.942;6.900;2023-04-01T19:36:09;7.05;;;4.78;;
20095;SDS011;10207;50.942;6.900;2023-04-01T19:38:13;8.10;;;5.95;;
20095;SDS011;10207;50.942;6.900;2023-04-01T20:01:48;10.15;;;6.78;;
20095;SDS011;10207;50.942;6.900;2023-04-01T20:09:21;10.30;;;7.70;;
20095;SDS011;10207;50.942;6.900;2023-04-01T20:14:54;10.90;;;8.25;;
20095;SDS011;10207;50.942;6.900;2023-04-01T20:25:24;15.07;;;8.50;;
20095;SDS011;10207;50.942;6.900;2023-04-01T20:31:29;13.80;;;8.65;;
20095;SDS011;10207;50.942;6.900;2023-04-01T20:36:36;13.50;;;8.55;;
20095;SDS011;10207;50.942;6.900;2023-04-01T20:52:40;13.35;;;8.10;;
20095;SDS011;10207;50.942;6.900;2023-04-01T20:57:55;10.77;;;7.10;;
20095;SDS011;10207;50.942;6.900;2023-04-01T21:00:34;9.18;;;6.55;;
20095;SDS011;10207;50.942;6.900;2023-04-01T21:03:15;10.05;;;7.15;;
20095;SDS011;10207;50.942;6.900;2023-04-01T21:08:33;9.52;;;6.45;;
20095;SDS011;10207;50.942;6.900;2023-04-01T21:16:15;13.77;;;6.60;;
20095;SDS011;10207;50.942;6.900;2023-04-01T21:19:08;8.63;;;5.70;;
20095;SDS011;10207;50.942;6.900;2023-04-01T21:49:49;6.78;;;4.53;;
20095;SDS011;10207;50.942;6.900;2023-04-01T21:53:09;10.00;;;5.13;;
20095;SDS011;10207;50.942;6.900;2023-04-01T21:55:28;6.22;;;3.97;;
20095;SDS011;10207;50.942;6.900;2023-04-01T22:00:48;8.10;;;4.82;;
20095;SDS011;10207;50.942;6.900;2023-04-01T22:18:22;7.82;;;5.38;;
20095;SDS011;10207;50.942;6.900;2023-04-01T22:28:41;15.55;;;6.65;;
20095;SDS011;10207;50.942;6.900;2023-04-01T22:31:11;14.43;;;6.57;;
20095;SDS011;10207;50.942;6.900;2023-04-01T22:33:42;10.93;;;6.03;;
20095;SDS011;10207;50.942;6.900;2023-04-01T22:36:32;10.40;;;6.95;;
20095;SDS011;10207;50.942;6.900;2023-04-01T22:44:43;11.90;;;7.35;;
20095;SDS011;10207;50.942;6.900;2023-04-01T22:47:07;14.27;;;7.72;;
20095;SDS011;10207;50.942;6.900;2023-04-01T22:49:41;11.00;;;6.80;;
20095;SDS011;10207;50.942;6.900;2023-04-01T22:54:58;9.80;;;6.82;;
20095;SDS011;10207;50.942;6.900;2023-04-01T23:02:39;11.02;;;7.53;;
20095;SDS011;10207;50.942;6.900;2023-04-01T23:05:05;14.35;;;9.25;;
20095;SDS011;10207;50.942;6.900;2023-04-01T23:07:38;16.30;;;9.82;;
20095;SDS011;10207;50.942;6.900;2023-04-01T23:10:15;16.75;;;10.32;;
20095;SDS011;10207;50.942;6.900;2023-04-01T23:12:42;16.55;;;11.45;;
20095;SDS011;10207;50.942;6.900;2023-04-01T23:15:11;17.38;;;10.93;;
20095;SDS011;10207;50.942;6.900;2023-04-01T23:25:27;19.40;;;12.18;;
20095;SDS011;10207;50.942;6.900;2023-04-01T23:28:18;17.33;;;11.55;;
20095;SDS011;10207;50.942;6.900;2023-04-01T23:30:46;16.38;;;11.35;;
20095;SDS011;10207;50.942;6.900;2023-04-01T23:35:52;14.20;;;10.63;;
20095;SDS011;10207;50.942;6.900;2023-04-01T23:38:20;17.08;;;11.02;;
20095;SDS011;10207;50.942;6.900;2023-04-01T23:40:47;17.33;;;11.23;;
20095;SDS011;10207;50.942;6.900;2023-04-01T23:43:27;17.52;;;10.98;;
20095;SDS011;10207;50.942;6.900;2023-04-01T23:45:55;17.40;;;10.70;;
20095;SDS011;10207;50.942;6.900;2023-04-01T23:48:24;18.65;;;11.40;;
20095;SDS011;10207;50.942;6.900;2023-04-01T23:50:52;18.77;;;12.00;;
20095;SDS011;10207;50.942;6.900;2023-04-01T23:53:19;17.08;;;10.35;;
20095;SDS011;10207;50.942;6.900;2023-04-01T23:55:46;21.52;;;12.75;;
